Time;durP1;ratioP1;P1;durP2;ratioP2;P2;SDS_P1;SDS_P2;PMS_P1;PMS_P2;Temp;Humidity;BMP_temperature;BMP_pressure;BME280_temperature;BME280_humidity;BME280_pressure;Samples;Min_cycle;Max_cycle;Signal;HPM_P1;HPM_P2
2020/12/14 00:02:22;;;;;;;24.83;3.53;;;12.40;99.90;;;;;;5067401;28;20478;-50
2020/12/14 00:04:48;;;;;;;25.85;3.88;;;12.40;99.90;;;;;;5067686;28;20054;-50
2020/12/14 00:07:13;;;;;;;27.38;3.13;;;12.30;99.90;;;;;;5068241;28;20055;-50
2020/12/14 00:09:39;;;;;;;34.78;3.00;;;12.30;99.90;;;;;;5067963;28;20379;-52
2020/12/14 00:12:05;;;;;;;52.53;5.70;;;12.30;99.90;;;;;;5067914;28;20105;-50
2020/12/14 00:14:30;;;;;;;32.72;3.55;;;12.30;99.90;;;;;;5067877;28;20096;-50
2020/12/14 00:16:56;;;;;;;30.77;3.78;;;12.30;99.90;;;;;;5068115;28;20033;-52
2020/12/14 00:19:22;;;;;;;32.58;3.80;;;12.40;99.90;;;;;;5067558;28;20057;-51
2020/12/14 00:21:54;;;;;;;35.58;4.38;;;12.40;99.90;;;;;;5083231;28;20733;-51
2020/12/14 00:24:21;;;;;;;33.60;3.20;;;12.50;99.90;;;;;;5078404;28;20101;-49
2020/12/14 00:26:48;;;;;;;29.77;3.70;;;12.40;99.90;;;;;;5068185;28;20466;-50
2020/12/14 00:29:14;;;;;;;32.30;4.18;;;12.40;99.90;;;;;;5067693;28;20054;-52
2020/12/14 00:31:39;;;;;;;41.03;3.72;;;12.40;99.90;;;;;;5067377;28;20044;-52
2020/12/14 00:34:05;;;;;;;44.00;4.35;;;12.30;99.90;;;;;;5067156;28;20025;-51
2020/12/14 00:36:31;;;;;;;26.20;3.70;;;12.30;99.90;;;;;;5067326;28;20024;-52
2020/12/14 00:38:57;;;;;;;28.45;4.45;;;12.30;99.90;;;;;;5067548;28;20047;-50
2020/12/14 00:41:22;;;;;;;29.58;4.18;;;12.20;99.90;;;;;;5067279;28;20031;-50
2020/12/14 00:43:49;;;;;;;37.90;4.90;;;12.20;99.90;;;;;;5066642;28;20390;-50
2020/12/14 00:46:16;;;;;;;38.55;4.50;;;12.20;99.90;;;;;;5067178;28;20037;-53
2020/12/14 00:48:42;;;;;;;41.33;5.30;;;12.20;99.90;;;;;;5066477;28;20029;-50
2020/12/14 00:51:07;;;;;;;31.15;4.97;;;12.20;99.90;;;;;;5067564;28;20087;-48
2020/12/14 00:53:34;;;;;;;36.38;4.97;;;12.10;99.90;;;;;;5067586;28;20493;-50
2020/12/14 00:56:06;;;;;;;43.20;5.10;;;12.20;99.90;;;;;;5067196;28;20207;-49
2020/12/14 00:58:33;;;;;;;54.63;6.32;;;12.20;99.90;;;;;;5069786;28;20139;-55
2020/12/14 01:00:59;;;;;;;43.00;4.75;;;12.30;99.90;;;;;;5067236;28;20025;-49
2020/12/14 01:03:25;;;;;;;55.67;6.00;;;12.20;99.90;;;;;;5051916;28;20066;-50
2020/12/14 01:05:51;;;;;;;62.00;5.43;;;12.20;99.90;;;;;;5067341;28;20036;-52
2020/12/14 01:08:20;;;;;;;51.47;6.25;;;12.30;99.90;;;;;;5066850;28;20368;-51
2020/12/14 01:10:46;;;;;;;59.67;6.38;;;12.30;99.90;;;;;;5067172;28;20170;-50
2020/12/14 01:13:11;;;;;;;46.95;5.13;;;12.30;99.90;;;;;;5067697;28;20399;-52
2020/12/14 01:15:37;;;;;;;46.45;4.88;;;12.30;99.90;;;;;;5067014;28;20097;-50
2020/12/14 01:18:02;;;;;;;47.38;4.95;;;12.20;99.90;;;;;;5066821;28;20176;-51
2020/12/14 01:20:28;;;;;;;37.20;4.78;;;12.20;99.90;;;;;;5070906;28;20346;-49
2020/12/14 01:22:54;;;;;;;49.20;6.03;;;12.20;99.90;;;;;;5086853;28;20036;-50
2020/12/14 01:25:19;;;;;;;52.05;5.43;;;12.20;99.90;;;;;;5072709;28;20724;-49
2020/12/14 01:27:45;;;;;;;42.25;6.30;;;12.20;99.90;;;;;;5066623;28;20117;-50
2020/12/14 01:30:10;;;;;;;48.70;5.28;;;12.20;99.90;;;;;;5066156;28;20094;-49
2020/12/14 01:32:36;;;;;;;43.58;6.05;;;12.10;99.90;;;;;;5049854;28;20595;-51
2020/12/14 01:35:05;;;;;;;34.60;6.18;;;12.10;99.90;;;;;;5066454;28;20037;-49
2020/12/14 01:37:31;;;;;;;48.13;6.88;;;12.20;99.90;;;;;;5066544;28;20036;-53
2020/12/14 01:39:56;;;;;;;76.22;6.93;;;12.10;99.90;;;;;;5066237;28;20028;-51
2020/12/14 01:42:22;;;;;;;56.70;6.15;;;12.10;99.90;;;;;;5065701;28;20045;-51
2020/12/14 01:44:51;;;;;;;47.97;6.10;;;12.10;99.90;;;;;;5065119;28;20029;-52
2020/12/14 01:47:32;;;;;;;49.72;6.47;;;12.00;99.90;;;;;;5066158;28;20036;-50
2020/12/14 01:49:58;;;;;;;63.90;5.82;;;12.00;99.90;;;;;;5065600;28;20110;-49
2020/12/14 01:52:24;;;;;;;53.17;6.78;;;12.00;99.90;;;;;;5066085;28;20441;-54
2020/12/14 01:54:52;;;;;;;45.03;4.43;;;12.00;99.90;;;;;;5065857;28;20039;-51
2020/12/14 01:57:18;;;;;;;47.50;5.70;;;12.10;99.90;;;;;;5069906;28;20115;-52
2020/12/14 01:59:44;;;;;;;42.33;4.60;;;12.20;99.90;;;;;;5069844;28;20032;-50
2020/12/14 02:02:09;;;;;;;47.88;4.63;;;12.30;99.90;;;;;;5069293;28;20500;-50
2020/12/14 02:04:35;;;;;;;33.50;3.97;;;12.30;99.90;;;;;;5069587;28;20035;-50
2020/12/14 02:07:02;;;;;;;40.95;5.07;;;12.40;99.90;;;;;;5069293;28;20033;-50
2020/12/14 02:09:27;;;;;;;43.92;4.63;;;12.30;99.90;;;;;;5068961;28;20036;-50
2020/12/14 02:11:53;;;;;;;37.50;4.00;;;12.40;99.90;;;;;;5069782;28;20375;-50
2020/12/14 02:14:19;;;;;;;37.05;4.57;;;12.50;99.90;;;;;;5069122;28;20025;-50
2020/12/14 02:16:45;;;;;;;35.72;3.80;;;12.60;99.90;;;;;;5069737;28;20690;-50
2020/12/14 02:19:10;;;;;;;44.92;5.38;;;12.70;99.90;;;;;;5069775;28;20367;-50
2020/12/14 02:21:36;;;;;;;40.53;4.93;;;12.70;99.90;;;;;;5083082;28;20048;-50
2020/12/14 02:24:14;;;;;;;40.53;4.32;;;12.70;99.90;;;;;;5088483;28;20247;-51
2020/12/14 02:26:40;;;;;;;66.13;7.65;;;12.70;99.90;;;;;;5069624;28;20093;-52
2020/12/14 02:29:06;;;;;;;36.33;5.30;;;12.70;99.90;;;;;;5069479;28;20540;-51
2020/12/14 02:31:31;;;;;;;52.28;5.68;;;12.60;99.90;;;;;;5072721;28;20371;-52
2020/12/14 02:33:57;;;;;;;43.45;5.78;;;12.60;99.90;;;;;;5070308;28;20060;-53
2020/12/14 02:36:24;;;;;;;34.03;4.30;;;12.50;99.90;;;;;;5069542;28;20409;-50
2020/12/14 02:38:50;;;;;;;51.95;6.18;;;12.50;99.90;;;;;;5070172;28;20035;-50
2020/12/14 02:41:16;;;;;;;50.63;5.68;;;12.40;99.90;;;;;;5070259;28;20039;-50
2020/12/14 02:43:42;;;;;;;36.78;4.22;;;12.40;99.90;;;;;;5069408;28;20032;-49
2020/12/14 02:46:07;;;;;;;38.90;4.88;;;12.40;99.90;;;;;;5078078;28;20166;-50
2020/12/14 02:48:33;;;;;;;33.75;4.70;;;12.30;99.90;;;;;;5088086;28;20119;-50
2020/12/14 02:50:59;;;;;;;40.40;5.00;;;12.30;99.90;;;;;;5089310;28;20108;-51
2020/12/14 02:53:24;;;;;;;49.65;5.15;;;12.30;99.90;;;;;;5089756;28;20100;-50
2020/12/14 02:55:50;;;;;;;55.45;7.07;;;12.30;99.90;;;;;;5089068;28;20036;-50
2020/12/14 02:58:15;;;;;;;47.03;5.38;;;12.40;99.90;;;;;;5090027;28;20039;-53
2020/12/14 03:00:41;;;;;;;40.95;4.85;;;12.40;99.90;;;;;;5090433;28;20036;-53
2020/12/14 03:03:07;;;;;;;47.13;5.22;;;12.40;99.90;;;;;;5086710;28;20032;-51
2020/12/14 03:05:32;;;;;;;42.67;5.38;;;12.50;99.90;;;;;;5090343;28;20115;-50
2020/12/14 03:07:58;;;;;;;49.10;6.18;;;12.40;99.90;;;;;;5089964;28;20043;-51
2020/12/14 03:10:23;;;;;;;53.72;5.88;;;12.40;99.90;;;;;;5086786;28;20055;-52
2020/12/14 03:12:49;;;;;;;39.65;4.53;;;12.40;99.90;;;;;;5090477;28;20055;-51
2020/12/14 03:15:15;;;;;;;60.25;6.28;;;12.40;99.90;;;;;;5090100;28;20068;-52
2020/12/14 03:17:40;;;;;;;38.60;5.60;;;12.40;99.90;;;;;;5090755;28;20744;-50
2020/12/14 03:20:06;;;;;;;48.55;5.35;;;12.40;99.90;;;;;;5089987;28;20036;-50
2020/12/14 03:22:32;;;;;;;45.88;5.05;;;12.50;99.90;;;;;;5090520;28;20127;-52
2020/12/14 03:24:57;;;;;;;42.50;5.65;;;12.40;99.90;;;;;;5090136;28;20504;-50
2020/12/14 03:27:23;;;;;;;55.08;6.75;;;12.50;99.90;;;;;;5089380;28;20039;-51
2020/12/14 03:29:49;;;;;;;32.38;4.05;;;12.50;99.90;;;;;;5089783;28;20024;-53
2020/12/14 03:32:14;;;;;;;39.25;4.95;;;12.50;99.90;;;;;;5089569;28;20028;-50
2020/12/14 03:34:40;;;;;;;37.50;4.47;;;12.50;99.90;;;;;;5089267;28;20053;-51
2020/12/14 03:37:05;;;;;;;40.85;4.90;;;12.50;99.90;;;;;;5089888;28;20036;-51
2020/12/14 03:39:31;;;;;;;31.35;4.22;;;12.50;99.90;;;;;;5071137;28;20047;-50
2020/12/14 03:41:57;;;;;;;31.42;3.50;;;12.50;99.90;;;;;;5088308;28;20028;-52
2020/12/14 03:44:22;;;;;;;23.55;3.05;;;12.50;99.90;;;;;;5089095;28;20461;-54
2020/12/14 03:46:50;;;;;;;20.15;3.50;;;12.60;99.90;;;;;;5089014;28;20084;-53
2020/12/14 03:49:16;;;;;;;28.67;3.60;;;12.60;99.90;;;;;;5070842;28;20028;-48
2020/12/14 03:51:41;;;;;;;34.63;5.22;;;12.60;99.90;;;;;;5088949;28;20102;-51
2020/12/14 03:54:07;;;;;;;35.70;4.90;;;12.60;99.90;;;;;;5090051;28;20028;-51
2020/12/14 03:56:33;;;;;;;38.95;5.68;;;12.60;99.90;;;;;;5088873;28;20077;-52
2020/12/14 03:59:00;;;;;;;35.15;4.78;;;12.60;99.90;;;;;;5089260;28;20398;-51
2020/12/14 04:01:26;;;;;;;30.77;4.72;;;12.50;99.90;;;;;;5089649;28;20028;-51
2020/12/14 04:03:53;;;;;;;35.08;5.25;;;12.50;99.90;;;;;;5088625;28;20438;-49
2020/12/14 04:06:19;;;;;;;26.77;3.50;;;12.50;99.90;;;;;;5089077;28;20471;-52
2020/12/14 04:08:45;;;;;;;30.63;3.97;;;12.50;99.90;;;;;;5071079;28;20084;-51
2020/12/14 04:11:11;;;;;;;21.40;2.45;;;12.50;99.90;;;;;;5089192;28;20086;-52
2020/12/14 04:13:36;;;;;;;23.23;3.88;;;12.50;99.90;;;;;;5089298;28;20070;-52
2020/12/14 04:16:02;;;;;;;21.65;3.45;;;12.50;99.90;;;;;;5089286;28;20051;-52
2020/12/14 04:18:27;;;;;;;21.38;2.95;;;12.60;99.90;;;;;;5089105;28;20110;-52
2020/12/14 04:20:53;;;;;;;23.15;3.20;;;12.70;99.90;;;;;;5088957;28;20160;-51
2020/12/14 04:23:19;;;;;;;22.20;3.22;;;12.70;99.90;;;;;;5089396;28;20061;-52
2020/12/14 04:25:44;;;;;;;23.80;3.40;;;12.70;99.90;;;;;;5089444;28;20047;-51
2020/12/14 04:28:10;;;;;;;33.13;4.30;;;12.70;99.90;;;;;;5089066;28;20092;-52
2020/12/14 04:30:36;;;;;;;23.13;3.17;;;12.70;99.90;;;;;;5070940;28;20092;-53
2020/12/14 04:33:01;;;;;;;23.08;3.15;;;12.70;99.90;;;;;;5088834;28;20051;-49
2020/12/14 04:35:27;;;;;;;29.75;3.58;;;12.70;99.90;;;;;;5089305;28;20038;-55
2020/12/14 04:37:53;;;;;;;36.83;3.35;;;12.80;99.90;;;;;;5088865;28;20041;-50
2020/12/14 04:40:20;;;;;;;35.58;4.00;;;12.80;99.90;;;;;;5088933;28;20120;-53
2020/12/14 04:42:51;;;;;;;25.70;2.88;;;12.70;99.90;;;;;;5089239;28;20365;-51
2020/12/14 04:45:17;;;;;;;28.88;3.38;;;12.60;99.90;;;;;;5088938;28;20391;-53
2020/12/14 04:47:43;;;;;;;35.28;3.70;;;12.70;99.90;;;;;;5088853;28;20519;-51
2020/12/14 04:50:09;;;;;;;15.45;2.70;;;12.60;99.90;;;;;;5088841;28;20044;-52
2020/12/14 04:52:36;;;;;;;25.77;2.90;;;12.60;99.90;;;;;;5088648;28;20358;-50
2020/12/14 04:55:03;;;;;;;35.35;3.67;;;12.60;99.90;;;;;;5088958;28;20432;-49
2020/12/14 04:57:32;;;;;;;36.72;4.60;;;12.60;99.90;;;;;;5088782;28;20115;-53
2020/12/14 04:59:57;;;;;;;30.77;3.67;;;12.60;99.90;;;;;;5088483;28;20047;-54
2020/12/14 05:02:23;;;;;;;7.97;1.13;;;12.60;99.90;;;;;;5085448;28;20346;-60
2020/12/14 05:04:48;;;;;;;14.20;2.05;;;11.30;99.90;;;;;;5088815;28;20028;-56
2020/12/14 05:07:15;;;;;;;24.05;3.05;;;10.80;99.90;;;;;;5088724;28;20028;-56
2020/12/14 05:09:41;;;;;;;13.52;2.15;;;10.50;99.90;;;;;;5089093;28;20032;-54
2020/12/14 05:12:22;;;;;;;17.38;2.92;;;10.40;99.90;;;;;;5085119;28;20524;-55
2020/12/14 05:14:48;;;;;;;27.17;2.40;;;10.30;99.90;;;;;;5089032;28;20036;-58
2020/12/14 05:17:24;;;;;;;23.20;3.40;;;10.30;99.90;;;;;;5088861;28;20435;-58
2020/12/14 05:19:50;;;;;;;23.25;2.97;;;10.30;99.90;;;;;;5088561;28;20101;-58
2020/12/14 05:22:17;;;;;;;31.23;2.58;;;10.30;99.90;;;;;;5087756;28;20048;-61
2020/12/14 05:24:51;;;;;;;20.92;3.42;;;10.30;99.90;;;;;;5087914;28;20032;-56
2020/12/14 05:27:34;;;;;;;34.15;3.92;;;10.30;99.90;;;;;;5088398;28;20225;-55
2020/12/14 05:30:12;;;;;;;23.00;2.53;;;10.30;99.90;;;;;;5088558;28;20046;-58
2020/12/14 05:32:37;;;;;;;29.60;3.45;;;10.40;99.90;;;;;;5092779;28;20421;-58
2020/12/14 05:35:12;;;;;;;31.85;3.45;;;10.60;99.90;;;;;;5092522;28;20030;-56
2020/12/14 05:37:38;;;;;;;34.17;3.95;;;10.70;99.90;;;;;;5092267;28;20038;-59
2020/12/14 05:40:10;;;;;;;30.80;3.63;;;10.80;99.90;;;;;;5091466;28;20035;-59
2020/12/14 05:42:43;;;;;;;52.20;4.97;;;10.80;99.90;;;;;;5092447;28;20412;-57
2020/12/14 05:45:12;;;;;;;33.60;3.72;;;10.90;99.90;;;;;;5091925;28;20035;-59
2020/12/14 05:47:42;;;;;;;44.90;5.28;;;11.00;99.90;;;;;;5082811;28;20028;-59
2020/12/14 05:50:09;;;;;;;36.88;4.95;;;10.90;99.90;;;;;;5071120;28;20040;-59
2020/12/14 05:52:46;;;;;;;46.60;4.18;;;10.90;99.90;;;;;;5071086;28;20572;-61
2020/12/14 05:55:16;;;;;;;38.80;3.80;;;10.90;99.90;;;;;;5071035;28;20508;-60
2020/12/14 05:57:50;;;;;;;22.73;3.78;;;10.90;99.90;;;;;;5070734;28;20033;-59
2020/12/14 06:00:17;;;;;;;52.35;6.10;;;10.90;99.90;;;;;;5070832;28;20451;-59
2020/12/14 06:02:44;;;;;;;51.80;6.47;;;11.10;99.90;;;;;;5068576;28;20035;-58
2020/12/14 06:05:10;;;;;;;57.28;6.43;;;11.40;99.90;;;;;;5090596;28;20035;-60
2020/12/14 06:07:38;;;;;;;51.40;5.47;;;11.50;99.90;;;;;;5083361;28;20112;-62
2020/12/14 06:10:12;;;;;;;43.22;6.88;;;11.70;99.90;;;;;;5070271;28;20605;-59
2020/12/14 06:12:45;;;;;;;43.72;5.75;;;11.80;99.90;;;;;;5089284;28;20040;-59
2020/12/14 06:15:17;;;;;;;41.80;6.45;;;11.80;99.90;;;;;;5087577;28;20020;-61
2020/12/14 06:17:45;;;;;;;58.40;6.38;;;11.80;99.90;;;;;;5084907;28;20061;-59
2020/12/14 06:20:24;;;;;;;48.38;5.35;;;11.70;99.90;;;;;;5069852;28;20064;-62
2020/12/14 06:22:57;;;;;;;43.47;5.10;;;11.80;99.90;;;;;;5070090;28;20433;-58
2020/12/14 06:25:23;;;;;;;54.05;5.90;;;11.80;99.90;;;;;;5069981;28;20071;-61
2020/12/14 06:27:49;;;;;;;34.75;4.57;;;11.80;99.90;;;;;;5085193;28;20034;-61
2020/12/14 06:30:27;;;;;;;48.05;6.35;;;11.80;99.90;;;;;;5089397;28;20051;-61
2020/12/14 06:32:59;;;;;;;67.18;5.65;;;11.80;99.90;;;;;;5067888;28;20111;-60
2020/12/14 06:35:42;;;;;;;31.58;3.97;;;11.80;99.90;;;;;;5086638;28;20703;-59
2020/12/14 06:38:07;;;;;;;44.58;4.53;;;11.80;99.90;;;;;;5083608;28;20028;-61
2020/12/14 06:41:04;;;;;;;49.83;4.80;;;11.80;99.90;;;;;;5088322;28;20028;-61
2020/12/14 06:43:33;;;;;;;48.25;5.50;;;11.80;99.90;;;;;;5065748;28;20184;-61
2020/12/14 06:46:01;;;;;;;45.90;5.10;;;11.70;99.90;;;;;;5087725;28;20024;-60
2020/12/14 06:48:37;;;;;;;43.17;5.18;;;11.80;99.90;;;;;;5079798;28;20074;-61
2020/12/14 06:51:05;;;;;;;36.53;5.75;;;11.70;99.90;;;;;;5068550;28;20040;-59
2020/12/14 06:53:47;;;;;;;45.42;5.63;;;11.70;99.90;;;;;;5078943;28;20028;-61
2020/12/14 06:56:25;;;;;;;43.05;6.15;;;11.60;99.90;;;;;;5086950;28;20039;-60
2020/12/14 06:58:51;;;;;;;43.72;5.60;;;11.60;99.90;;;;;;5086337;28;20032;-59
2020/12/14 07:01:41;;;;;;;48.78;5.43;;;11.70;99.90;;;;;;5086453;28;20137;-60
2020/12/14 07:04:12;;;;;;;43.22;5.13;;;11.60;99.90;;;;;;5082472;28;20024;-61
2020/12/14 07:06:38;;;;;;;41.92;4.45;;;11.70;99.90;;;;;;5086899;28;20028;-59
2020/12/14 07:09:32;;;;;;;45.72;5.68;;;11.70;99.90;;;;;;5078496;28;20099;-60
2020/12/14 07:12:10;;;;;;;39.08;6.32;;;11.70;99.90;;;;;;5059619;28;20040;-58
2020/12/14 07:14:49;;;;;;;35.00;4.80;;;11.70;99.90;;;;;;5080580;28;20028;-58
2020/12/14 07:17:18;;;;;;;45.17;6.28;;;11.70;99.90;;;;;;5087271;28;20032;-56
2020/12/14 07:19:52;;;;;;;50.42;5.80;;;11.70;99.90;;;;;;5075127;28;20028;-57
2020/12/14 07:22:18;;;;;;;;;;;11.70;99.90;;;;;;5070969;28;20044;-56
2020/12/14 07:24:48;;;;;;;44.83;5.63;;;11.70;99.90;;;;;;5071469;28;19981;-54
2020/12/14 07:27:22;;;;;;;39.42;5.18;;;11.60;99.90;;;;;;5081184;28;20107;-58
2020/12/14 07:29:47;;;;;;;51.53;6.10;;;11.60;99.90;;;;;;5083557;28;20054;-57
2020/12/14 07:32:13;;;;;;;58.85;6.80;;;11.70;99.90;;;;;;5085844;28;20036;-56
2020/12/14 07:34:38;;;;;;;51.50;6.50;;;11.60;99.90;;;;;;5083081;28;20036;-55
2020/12/14 07:37:04;;;;;;;38.42;4.90;;;11.60;99.90;;;;;;5068359;28;20504;-55
2020/12/14 07:39:30;;;;;;;45.45;5.72;;;11.60;99.90;;;;;;5053044;28;20040;-56
2020/12/14 07:41:55;;;;;;;33.85;4.90;;;11.60;99.90;;;;;;5067255;28;20032;-56
2020/12/14 07:44:21;;;;;;;37.00;5.05;;;11.60;99.90;;;;;;5075766;28;20484;-57
2020/12/14 07:46:47;;;;;;;35.70;4.22;;;11.70;99.90;;;;;;5069116;28;20059;-56
2020/12/14 07:49:15;;;;;;;40.75;4.80;;;11.70;99.90;;;;;;5077993;28;20037;-55
2020/12/14 07:51:44;;;;;;;41.05;5.50;;;11.80;99.90;;;;;;5067519;28;20558;-56
2020/12/14 07:54:14;;;;;;;47.20;6.03;;;11.80;99.90;;;;;;5070619;28;20546;-56
2020/12/14 07:56:51;;;;;;;44.95;5.90;;;11.70;99.90;;;;;;5078274;28;20032;-55
2020/12/14 07:59:19;;;;;;;40.25;5.95;;;11.70;99.90;;;;;;5081537;28;20174;-55
2020/12/14 08:01:46;;;;;;;39.40;5.60;;;11.70;99.90;;;;;;5083298;28;20489;-56
2020/12/14 08:04:12;;;;;;;45.10;5.40;;;11.60;99.90;;;;;;5081445;28;20043;-52
2020/12/14 08:06:40;;;;;;;49.95;5.82;;;11.60;99.90;;;;;;5064978;28;20398;-54
2020/12/14 08:09:07;;;;;;;46.85;5.97;;;11.60;99.90;;;;;;5081374;28;20047;-53
2020/12/14 08:11:34;;;;;;;58.78;6.97;;;11.60;99.90;;;;;;5081454;28;20044;-53
2020/12/14 08:14:00;;;;;;;54.30;5.65;;;11.60;99.90;;;;;;5079855;28;20031;-54
2020/12/14 08:16:29;;;;;;;42.85;5.05;;;11.50;99.90;;;;;;5085376;28;20119;-52
2020/12/14 08:18:56;;;;;;;33.75;5.82;;;11.60;99.90;;;;;;5077966;28;20478;-52
2020/12/14 08:21:26;;;;;;;49.10;6.40;;;11.70;99.90;;;;;;5086251;28;20055;-52
2020/12/14 08:23:56;;;;;;;60.05;6.60;;;11.80;99.90;;;;;;5083322;28;20044;-51
2020/12/14 08:26:30;;;;;;;53.45;6.38;;;11.80;99.90;;;;;;5087257;28;20028;-51
2020/12/14 08:28:58;;;;;;;46.78;5.90;;;11.90;99.90;;;;;;5080468;28;20024;-53
2020/12/14 08:31:24;;;;;;;34.15;4.50;;;12.00;99.90;;;;;;5087017;28;20044;-50
2020/12/14 08:33:55;;;;;;;48.35;5.47;;;12.00;99.90;;;;;;5078981;28;20046;-51
2020/12/14 08:36:23;;;;;;;34.58;4.30;;;12.00;99.90;;;;;;5082795;28;20043;-51
2020/12/14 08:38:50;;;;;;;30.42;4.93;;;12.00;99.90;;;;;;5065759;28;20060;-51
2020/12/14 08:41:22;;;;;;;62.35;6.88;;;12.00;99.90;;;;;;5066412;28;20075;-50
2020/12/14 08:43:49;;;;;;;49.60;6.85;;;12.10;99.90;;;;;;5070618;28;20032;-52
2020/12/14 08:46:19;;;;;;;42.42;7.07;;;12.10;99.90;;;;;;5065833;28;20060;-50
2020/12/14 08:48:53;;;;;;;49.25;5.88;;;12.10;99.90;;;;;;5079939;28;20024;-50
2020/12/14 08:51:27;;;;;;;52.72;6.55;;;12.10;99.90;;;;;;5083431;28;20048;-50
2020/12/14 08:53:56;;;;;;;44.00;6.63;;;12.20;99.90;;;;;;5087399;28;20038;-50
2020/12/14 08:56:32;;;;;;;46.20;5.75;;;12.20;99.90;;;;;;5086257;28;20494;-53
2020/12/14 08:58:59;;;;;;;43.05;5.03;;;12.30;99.90;;;;;;5080092;28;20514;-50
2020/12/14 09:01:27;;;;;;;38.85;5.07;;;12.30;99.90;;;;;;5078009;28;20029;-51
2020/12/14 09:03:54;;;;;;;47.83;5.60;;;12.40;99.90;;;;;;5079894;28;20028;-52
2020/12/14 09:06:33;;;;;;;48.80;4.55;;;12.40;99.90;;;;;;5074426;28;20090;-49
2020/12/14 09:09:13;;;;;;;29.52;4.53;;;12.40;99.90;;;;;;5080970;28;20040;-50
2020/12/14 09:11:41;;;;;;;44.90;5.00;;;12.30;99.90;;;;;;5081057;28;20489;-50
2020/12/14 09:14:08;;;;;;;29.08;4.30;;;12.20;99.90;;;;;;5074190;28;20024;-49
2020/12/14 09:16:34;;;;;;;22.15;3.78;;;12.20;99.90;;;;;;5066179;28;20121;-49
2020/12/14 09:19:00;;;;;;;32.60;4.38;;;12.20;99.90;;;;;;5080851;28;20031;-49
2020/12/14 09:21:26;;;;;;;32.38;5.00;;;12.30;99.90;;;;;;5064554;28;20059;-50
2020/12/14 09:24:17;;;;;;;40.95;5.03;;;12.40;99.90;;;;;;5079746;28;21022;-49
2020/12/14 09:26:43;;;;;;;39.75;5.43;;;12.50;99.90;;;;;;5083636;28;20121;-49
2020/12/14 09:29:10;;;;;;;52.92;5.80;;;12.50;99.90;;;;;;5065892;28;20717;-48
2020/12/14 09:31:36;;;;;;;47.05;5.57;;;12.50;99.90;;;;;;5086585;28;20652;-49
2020/12/14 09:34:02;;;;;;;40.22;5.43;;;12.50;99.90;;;;;;5085490;28;20024;-48
2020/12/14 09:36:28;;;;;;;46.00;5.78;;;12.50;99.90;;;;;;5073805;28;20078;-48
2020/12/14 09:38:56;;;;;;;38.97;4.82;;;12.50;99.90;;;;;;5073562;28;20036;-49
2020/12/14 09:41:30;;;;;;;46.05;6.03;;;12.40;99.90;;;;;;5084570;28;20582;-50
2020/12/14 09:43:56;;;;;;;46.17;5.53;;;12.40;99.90;;;;;;5066843;28;20715;-49
2020/12/14 09:46:25;;;;;;;43.25;6.07;;;12.50;99.90;;;;;;5083151;28;20028;-48
2020/12/14 09:48:51;;;;;;;39.22;6.05;;;12.50;99.90;;;;;;5066136;28;20032;-50
2020/12/14 09:51:17;;;;;;;44.10;5.65;;;12.50;99.90;;;;;;5074752;28;20080;-51
2020/12/14 09:53:43;;;;;;;47.63;6.60;;;12.40;99.90;;;;;;5085206;28;20547;-48
2020/12/14 09:56:09;;;;;;;40.83;5.60;;;12.40;99.90;;;;;;5079125;28;20029;-51
2020/12/14 09:58:34;;;;;;;46.53;6.10;;;12.40;99.90;;;;;;5084517;28;20090;-49
2020/12/14 10:01:00;;;;;;;40.20;5.85;;;12.40;99.90;;;;;;5074172;28;20021;-49
2020/12/14 10:03:25;;;;;;;49.88;6.55;;;12.40;99.90;;;;;;5087955;28;20027;-49
2020/12/14 10:05:51;;;;;;;53.58;8.43;;;12.40;99.90;;;;;;5081080;28;20071;-48
2020/12/14 10:08:17;;;;;;;35.80;5.00;;;12.50;99.90;;;;;;5074758;28;20082;-49
2020/12/14 10:10:43;;;;;;;37.15;5.13;;;12.50;99.90;;;;;;5075993;28;20086;-49
2020/12/14 10:13:09;;;;;;;48.92;6.63;;;12.70;99.90;;;;;;5074107;28;20021;-48
2020/12/14 10:15:35;;;;;;;48.95;5.85;;;12.70;99.90;;;;;;5082319;28;20028;-48
2020/12/14 10:18:01;;;;;;;32.95;4.63;;;12.80;99.90;;;;;;5077265;28;20144;-49
2020/12/14 10:20:28;;;;;;;26.42;4.43;;;12.80;99.90;;;;;;5071906;28;20173;-50
2020/12/14 10:22:54;;;;;;;43.80;6.10;;;12.80;99.90;;;;;;5092459;28;20060;-49
2020/12/14 10:25:21;;;;;;;40.25;5.63;;;12.70;99.90;;;;;;5069207;28;20125;-49
2020/12/14 10:27:47;;;;;;;38.65;7.25;;;12.70;99.90;;;;;;5068868;28;20573;-50
2020/12/14 10:30:12;;;;;;;49.28;5.95;;;12.80;99.90;;;;;;5068977;28;20056;-48
2020/12/14 10:32:38;;;;;;;51.42;6.80;;;12.80;99.90;;;;;;5098344;28;20029;-49
2020/12/14 10:35:04;;;;;;;50.20;7.15;;;12.90;99.90;;;;;;5083099;28;20029;-48
2020/12/14 10:37:29;;;;;;;46.40;6.55;;;13.10;99.90;;;;;;5083502;28;20040;-47
2020/12/14 10:39:55;;;;;;;55.45;6.93;;;13.30;99.90;;;;;;5069393;28;20037;-48
2020/12/14 10:42:21;;;;;;;40.03;6.18;;;13.40;99.90;;;;;;5069439;28;20462;-49
2020/12/14 10:44:46;;;;;;;37.15;5.72;;;13.40;99.90;;;;;;5069091;28;20467;-49
2020/12/14 10:47:12;;;;;;;47.88;5.85;;;13.40;99.90;;;;;;5085833;28;20031;-50
2020/12/14 10:49:38;;;;;;;37.47;4.60;;;13.40;99.90;;;;;;5072466;28;20463;-48
2020/12/14 10:52:04;;;;;;;36.28;5.97;;;13.30;99.90;;;;;;5066859;28;20044;-48
2020/12/14 10:54:30;;;;;;;41.00;5.15;;;13.30;99.90;;;;;;5071906;28;20032;-48
2020/12/14 10:56:56;;;;;;;46.85;5.95;;;13.30;99.90;;;;;;5083195;28;20032;-48
2020/12/14 10:59:22;;;;;;;44.05;6.30;;;13.20;99.90;;;;;;5083155;28;20039;-48
2020/12/14 11:01:51;;;;;;;56.22;7.18;;;13.10;99.90;;;;;;5084973;28;20040;-47
2020/12/14 11:04:17;;;;;;;47.78;6.10;;;13.10;99.90;;;;;;5092632;28;20027;-48
2020/12/14 11:06:43;;;;;;;49.13;6.13;;;13.10;99.90;;;;;;5075331;28;20629;-47
2020/12/14 11:09:09;;;;;;;48.65;7.95;;;13.00;99.90;;;;;;5079223;28;20027;-51
2020/12/14 11:11:36;;;;;;;52.50;7.40;;;13.00;99.90;;;;;;5074016;28;20094;-48
2020/12/14 11:14:02;;;;;;;57.40;8.38;;;13.00;99.90;;;;;;5068594;28;20021;-48
2020/12/14 11:16:30;;;;;;;42.50;6.03;;;13.10;99.90;;;;;;5068421;28;20039;-48
2020/12/14 11:18:57;;;;;;;49.60;7.05;;;13.10;99.90;;;;;;5068061;28;20029;-48
2020/12/14 11:21:22;;;;;;;38.28;5.68;;;13.20;99.90;;;;;;5075701;28;20676;-48
2020/12/14 11:23:48;;;;;;;53.55;7.07;;;13.20;99.90;;;;;;5074257;28;20033;-49
2020/12/14 11:26:13;;;;;;;56.95;7.03;;;13.10;99.90;;;;;;5085091;28;20397;-49
2020/12/14 11:28:40;;;;;;;50.13;7.38;;;13.00;99.90;;;;;;5072125;28;20534;-48
2020/12/14 11:31:07;;;;;;;51.95;7.35;;;12.90;99.90;;;;;;5068006;28;20172;-48
2020/12/14 11:33:36;;;;;;;53.95;6.82;;;12.90;99.90;;;;;;5067436;28;20024;-48
2020/12/14 11:36:03;;;;;;;45.92;6.50;;;12.90;99.90;;;;;;5070880;28;20039;-47
2020/12/14 11:38:30;;;;;;;43.83;6.97;;;12.90;99.90;;;;;;5070582;28;20543;-47
2020/12/14 11:40:57;;;;;;;54.42;6.75;;;12.90;99.90;;;;;;5067956;28;20062;-48
2020/12/14 11:43:23;;;;;;;42.33;5.82;;;12.90;99.90;;;;;;5068563;28;20036;-47
2020/12/14 11:45:49;;;;;;;45.30;6.05;;;13.00;99.90;;;;;;5082448;28;20055;-48
2020/12/14 11:48:15;;;;;;;51.83;6.75;;;13.10;99.90;;;;;;5088016;28;20047;-48
2020/12/14 11:50:41;;;;;;;52.83;5.95;;;13.10;99.90;;;;;;5083705;28;20052;-46
2020/12/14 11:53:09;;;;;;;48.22;6.63;;;13.10;99.90;;;;;;5067804;28;20482;-49
2020/12/14 11:55:35;;;;;;;55.15;6.50;;;13.00;99.90;;;;;;5078867;28;20028;-47
2020/12/14 11:58:01;;;;;;;50.53;7.93;;;13.10;99.90;;;;;;5077765;28;20110;-49
2020/12/14 12:00:27;;;;;;;45.38;6.00;;;13.40;99.90;;;;;;5069255;28;20559;-48
2020/12/14 12:02:53;;;;;;;45.42;7.55;;;13.60;99.90;;;;;;5082660;28;20033;-47
2020/12/14 12:05:18;;;;;;;47.28;7.20;;;13.60;99.90;;;;;;5071310;28;20040;-48
2020/12/14 12:07:44;;;;;;;34.55;6.43;;;13.40;99.90;;;;;;5066781;28;20209;-48
2020/12/14 12:10:10;;;;;;;56.17;6.40;;;13.30;99.90;;;;;;5066654;28;20402;-47
2020/12/14 12:12:37;;;;;;;66.13;6.28;;;13.10;99.90;;;;;;5066993;28;20058;-46
2020/12/14 12:15:04;;;;;;;48.15;6.10;;;13.00;99.90;;;;;;5066721;28;20037;-47
2020/12/14 12:17:29;;;;;;;38.30;6.40;;;12.90;99.90;;;;;;5051565;28;20029;-48
2020/12/14 12:19:55;;;;;;;46.30;5.50;;;12.90;99.90;;;;;;5079155;28;20055;-46
2020/12/14 12:22:21;;;;;;;55.00;6.47;;;12.90;99.90;;;;;;5057062;28;20109;-48
2020/12/14 12:24:46;;;;;;;51.30;6.82;;;13.00;99.90;;;;;;5075296;28;20139;-50
2020/12/14 12:27:12;;;;;;;46.20;6.93;;;13.00;99.90;;;;;;5066453;28;20025;-46
2020/12/14 12:29:38;;;;;;;66.28;7.60;;;13.00;99.90;;;;;;5048503;28;20039;-47
2020/12/14 12:32:04;;;;;;;63.50;9.07;;;13.10;99.90;;;;;;5066547;28;20036;-47
2020/12/14 12:34:31;;;;;;;63.40;7.50;;;13.00;99.90;;;;;;5066687;28;20038;-46
2020/12/14 12:36:58;;;;;;;36.75;5.25;;;13.10;99.90;;;;;;5066732;28;20355;-47
2020/12/14 12:39:23;;;;;;;54.03;6.35;;;13.20;99.90;;;;;;5068679;28;20036;-46
2020/12/14 12:41:50;;;;;;;52.95;7.03;;;13.40;99.90;;;;;;5086057;28;20082;-47